Lake Ozark, MO

9:14 PM CST on December 18, 2014 (GMT -0600)
Waynesville Regional At Forney Field | Change Station
CLOSE
Current Station
Airport
Location: Fort Leonard Wood,
Elevation: 1158 ft
Nearby Weather Stations
Active Advisory: Dense Fog Advisory

Elev 1158 ft 37.74 °N, 92.14 °W | Updated 6 minutes ago

Fog
Fog
34 °F
Feels Like 31 °F
N
4
Wind Variable Wind from SSE

Today
High -- | Low -- °F
--% Chance of Precip.
Yesterday
High -- | Low -- °F
Precip. -- in
7:21 AM 4:52 PM
Waning Crescent, 10% visible
Pressure 30.21 in
Visibility 1.0 miles
Clouds
Windchill 31 °F
Dew Point 34 °F
Humidity 100%
Rainfall 0.04 in
Snow Depth Not available.
UV Not available.
Pollen .40 out of 12
Air Quality Not available.
Flu Activity Not available.
SPECI KTBN 190308Z AUTO 16003KT 1SM R14/5500FT BR VV003 01/01 A3021 RMK AO2 VIS 1V2

More Conditions Fewer Conditions

Pressure 30.21 in
Visibility 1.0 miles
Clouds
Windchill 31 °F
Dew Point 34 °F
Humidity 100%
Rainfall 0.04 in
Snow Depth Not available.
UV Not available.
Pollen .40 out of 12
Air Quality Not available.
Flu Activity Not available.
SPECI KTBN 190308Z AUTO 16003KT 1SM R14/5500FT BR VV003 01/01 A3021 RMK AO2 VIS 1V2

More Conditions Fewer Conditions

10-Day Weather Forecast

Almanac

Astronomy

Dec. 18, 2014 Rise Set
Actual Time
Civil Twilight
Nautical Twilight
Astronomical Twilight
Moon
Length of Visible Light
Length of Day
Tomorrow will be .
, % of the Moon is Illuminated

Today's Extremes

State Highs State Lows

Community

WunderPhotos

Upload Photos

1,778,994 photos uploaded!

WunderBlogs® & News

Nearby

Air Quality

  Air Quality AQ Index Pollutant
Not available.

Snow Depth

Station Depth Elevation

Earthquake Activity

City Distance Mag. Time & Date
Minimum magnitude displayed is 2.5.

Coastal Water Temperatures

Place Temperature

Nearby Weather Stations